Time;durP1;ratioP1;P1;durP2;ratioP2;P2;SDS_P1;SDS_P2;PMS_P1;PMS_P2;Temp;Humidity;BMP_temperature;BMP_pressure;BME280_temperature;BME280_humidity;BME280_pressure;Samples;Min_cycle;Max_cycle;Signal;HPM_P1;HPM_P2
2023/09/12 00:01:32;;;;;;;108.40;50.20;;;;;;;21.70;100.00;100756.66;5086790;28;20423;-77
2023/09/12 00:03:58;;;;;;;108.50;49.30;;;;;;;21.73;100.00;100747.91;5090164;28;20074;-81
2023/09/12 00:06:24;;;;;;;99.00;48.28;;;;;;;21.76;100.00;100747.34;5053208;28;20548;-82
2023/09/12 00:08:52;;;;;;;109.95;49.80;;;;;;;21.75;100.00;100745.69;5066080;28;20044;-84
2023/09/12 00:11:17;;;;;;;116.55;50.95;;;;;;;21.76;100.00;100747.34;5059303;28;20089;-83
2023/09/12 00:13:42;;;;;;;109.32;49.15;;;;;;;21.68;100.00;100731.44;5078101;28;20504;-85
2023/09/12 00:16:11;;;;;;;103.68;49.00;;;;;;;21.77;100.00;100735.28;5059991;28;20039;-83
2023/09/12 00:18:37;;;;;;;104.47;49.40;;;;;;;21.78;100.00;100739.66;5043631;28;20028;-82
2023/09/12 00:21:03;;;;;;;101.00;48.83;;;;;;;21.69;100.00;100728.47;5042468;28;20020;-86
2023/09/12 00:23:29;;;;;;;96.28;47.15;;;;;;;21.77;100.00;100741.59;5059441;28;20123;-86
2023/09/12 00:25:54;;;;;;;109.57;52.13;;;;;;;21.80;100.00;100740.22;5042598;28;20029;-76
2023/09/12 00:28:20;;;;;;;106.80;51.35;;;;;;;21.86;100.00;100746.53;5058442;28;20028;-84
2023/09/12 00:30:46;;;;;;;105.90;48.53;;;;;;;21.87;100.00;100740.75;5077484;28;20036;-83
2023/09/12 00:33:11;;;;;;;101.75;47.72;;;;;;;21.80;100.00;100740.22;5077268;28;20032;-82
2023/09/12 00:35:37;;;;;;;89.50;44.15;;;;;;;21.82;100.00;100740.78;5059364;28;21243;-84
2023/09/12 00:38:03;;;;;;;86.90;44.45;;;;;;;21.84;100.00;100741.31;5078105;28;20017;-83
2023/09/12 00:40:28;;;;;;;86.93;44.45;;;;;;;21.84;100.00;100738.56;5042709;28;20027;-86
2023/09/12 00:42:54;;;;;;;88.03;45.42;;;;;;;21.81;100.00;100728.97;5058933;28;20032;-85
2023/09/12 00:45:20;;;;;;;101.90;49.00;;;;;;;21.91;100.00;100743.75;5058443;28;20463;-82
2023/09/12 00:47:47;;;;;;;95.47;46.55;;;;;;;21.80;100.00;100732.00;5058563;28;20099;-83
2023/09/12 00:50:14;;;;;;;104.82;50.80;;;;;;;21.90;100.00;100742.94;5058424;28;20046;-83
2023/09/12 00:52:41;;;;;;;100.93;48.40;;;;;;;21.90;100.00;100739.38;5058227;28;20025;-87
2023/09/12 00:55:07;;;;;;;102.78;48.70;;;;;;;21.86;100.00;100732.81;5059354;28;20086;-86
2023/09/12 00:57:34;;;;;;;92.68;47.85;;;;;;;21.89;100.00;100740.50;5055862;28;20033;-69
2023/09/12 01:00:10;;;;;;;100.93;52.25;;;;;;;21.85;100.00;100737.44;5075679;28;20028;-69
2023/09/12 01:02:37;;;;;;;100.90;52.22;;;;;;;21.91;100.00;100744.56;5081722;28;20077;-73
2023/09/12 01:05:02;;;;;;;97.80;51.38;;;;;;;21.93;100.00;100747.06;5043364;28;20032;-86
2023/09/12 01:07:28;;;;;;;100.07;49.47;;;;;;;21.92;100.00;100751.72;5060333;28;20028;-81
2023/09/12 01:09:53;;;;;;;92.25;49.67;;;;;;;21.82;100.00;100740.78;5080677;28;20032;-76
2023/09/12 01:12:20;;;;;;;98.32;51.30;;;;;;;21.87;100.00;100750.88;5029205;28;20047;-79
2023/09/12 01:14:45;;;;;;;106.38;52.42;;;;;;;21.92;100.00;100754.44;5080462;28;20024;-79
2023/09/12 01:17:11;;;;;;;109.90;52.55;;;;;;;21.92;100.00;100751.72;5079743;28;20066;-82
2023/09/12 01:19:36;;;;;;;105.03;55.20;;;;;;;21.89;100.00;100755.00;5062511;28;20024;-86
2023/09/12 01:22:36;;;;;;;100.05;54.20;;;;;;;21.85;100.00;100753.06;5062844;28;20123;-81
2023/09/12 01:25:29;;;;;;;98.90;54.33;;;;;;;21.82;100.00;100751.72;5079895;28;20032;-86
2023/09/12 01:27:58;;;;;;;96.63;52.88;;;;;;;21.81;100.00;100750.06;5062417;28;20028;-76
2023/09/12 01:30:26;;;;;;;101.90;56.45;;;;;;;21.81;100.00;100755.53;5080965;28;20032;-85
2023/09/12 01:32:52;;;;;;;99.22;53.40;;;;;;;21.73;100.00;100751.44;5080303;28;20421;-82
2023/09/12 01:35:17;;;;;;;93.57;53.65;;;;;;;21.74;100.00;100758.56;5079811;28;20074;-79
2023/09/12 01:37:43;;;;;;;98.03;53.35;;;;;;;21.67;100.00;100735.28;5062608;28;20051;-82
2023/09/12 01:40:10;;;;;;;100.85;54.10;;;;;;;21.75;100.00;100751.16;5080067;28;20492;-76
2023/09/12 01:42:40;;;;;;;93.43;50.25;;;;;;;21.70;100.00;100756.66;5062348;28;20119;-83
2023/09/12 01:45:09;;;;;;;93.78;51.22;;;;;;;21.68;100.00;100767.88;5080715;28;20067;-84
2023/09/12 01:47:36;;;;;;;87.80;49.17;;;;;;;21.67;100.00;100762.69;5061598;28;20426;-77
2023/09/12 01:50:05;;;;;;;80.78;47.58;;;;;;;21.67;100.00;100770.91;5061773;28;20051;-84
2023/09/12 01:52:31;;;;;;;85.15;49.83;;;;;;;21.58;100.00;100746.78;5079991;28;20028;-82
2023/09/12 01:54:58;;;;;;;79.20;48.25;;;;;;;21.62;100.00;100762.66;5082040;28;20064;-71
2023/09/12 01:57:23;;;;;;;79.80;47.67;;;;;;;21.60;100.00;100762.13;5092657;28;20037;-73
2023/09/12 01:59:49;;;;;;;77.15;46.38;;;;;;;21.52;100.00;100756.13;5046122;28;20055;-80
2023/09/12 02:02:18;;;;;;;78.32;47.10;;;;;;;21.54;100.00;100761.31;5059439;28;20483;-79
2023/09/12 02:05:07;;;;;;;78.00;47.17;;;;;;;21.55;100.00;100758.28;5077118;28;20056;-77
2023/09/12 02:07:37;;;;;;;79.35;48.67;;;;;;;21.50;100.00;100747.34;5079034;28;20021;-87
2023/09/12 02:10:04;;;;;;;81.07;47.30;;;;;;;21.57;100.00;100766.25;5079803;28;20439;-85
2023/09/12 02:12:31;;;;;;;81.30;48.70;;;;;;;21.51;100.00;100748.97;5079666;28;20047;-80
2023/09/12 02:14:56;;;;;;;70.18;45.92;;;;;;;21.60;100.00;100759.41;5044088;28;20033;-83
2023/09/12 02:17:21;;;;;;;77.95;47.80;;;;;;;21.51;100.00;100751.72;5060915;28;20033;-77
2023/09/12 02:19:48;;;;;;;77.40;46.92;;;;;;;21.59;100.00;100775.00;5044472;28;20511;-86
2023/09/12 02:22:13;;;;;;;73.28;45.78;;;;;;;21.58;100.00;100770.59;5060949;28;20585;-84
2023/09/12 02:24:38;;;;;;;77.03;48.50;;;;;;;21.59;100.00;100777.75;5078224;28;20044;-78
2023/09/12 02:27:04;;;;;;;83.82;50.30;;;;;;;21.58;100.00;100779.66;5078889;28;20387;-84
2023/09/12 02:29:31;;;;;;;81.47;50.30;;;;;;;21.58;100.00;100771.44;5080723;28;20539;-76
2023/09/12 02:31:56;;;;;;;89.65;50.03;;;;;;;21.34;100.00;100740.19;5047236;28;20028;-77
2023/09/12 02:34:21;;;;;;;84.45;49.35;;;;;;;21.52;100.00;100774.44;5081619;28;20100;-72
2023/09/12 02:36:47;;;;;;;75.10;45.72;;;;;;;21.49;100.00;100772.25;5063739;28;20044;-81
2023/09/12 02:39:12;;;;;;;79.60;46.20;;;;;;;21.51;100.00;100773.63;5087425;28;20012;-70
2023/09/12 02:41:38;;;;;;;79.82;46.08;;;;;;;21.51;100.00;100775.53;5063066;28;20042;-74
2023/09/12 02:44:03;;;;;;;76.88;45.78;;;;;;;21.58;100.00;100760.47;5085969;28;20463;-85
2023/09/12 02:46:29;;;;;;;81.43;45.45;;;;;;;21.62;100.00;100768.16;5062842;28;20495;-79
2023/09/12 02:48:54;;;;;;;73.97;44.55;;;;;;;21.66;100.00;100772.00;5061510;28;20107;-82
2023/09/12 02:51:20;;;;;;;72.45;43.67;;;;;;;21.58;100.00;100763.22;5079063;28;20024;-81
2023/09/12 02:53:45;;;;;;;74.72;43.58;;;;;;;21.65;100.00;100771.16;5042749;28;20517;-80
2023/09/12 02:56:11;;;;;;;71.05;41.45;;;;;;;21.66;100.00;100775.56;5060189;28;20028;-80
2023/09/12 02:58:36;;;;;;;67.38;39.60;;;;;;;21.66;100.00;100775.56;5058510;28;20032;-69
2023/09/12 03:01:03;;;;;;;62.22;38.85;;;;;;;21.65;100.00;100781.28;5075738;28;20036;-70
2023/09/12 03:03:28;;;;;;;60.97;38.20;;;;;;;21.64;100.00;100775.00;5080821;28;20131;-75
2023/09/12 03:06:02;;;;;;;58.67;37.03;;;;;;;21.63;100.00;100775.28;5080721;28;20072;-77
2023/09/12 03:08:27;;;;;;;55.30;35.00;;;;;;;21.62;100.00;100776.34;5060701;28;20119;-77
2023/09/12 03:10:55;;;;;;;55.08;34.35;;;;;;;21.62;100.00;100779.09;5061319;28;20122;-83
2023/09/12 03:13:20;;;;;;;56.25;34.28;;;;;;;21.61;100.00;100778.28;5061123;28;20032;-79
2023/09/12 03:15:46;;;;;;;57.80;34.83;;;;;;;21.62;100.00;100782.66;5060673;28;20032;-84
2023/09/12 03:18:12;;;;;;;55.78;34.13;;;;;;;21.65;100.00;100781.28;5078066;28;20482;-84
2023/09/12 03:20:40;;;;;;;58.33;33.80;;;;;;;21.55;100.00;100771.16;5046087;28;20078;-82
2023/09/12 03:23:06;;;;;;;51.90;33.45;;;;;;;21.66;100.00;100778.28;5062891;28;20035;-69
2023/09/12 03:25:37;;;;;;;56.58;35.13;;;;;;;21.51;100.00;100767.31;5092386;28;20029;-80
2023/09/12 03:28:03;;;;;;;60.63;36.05;;;;;;;21.62;100.00;100779.09;5079552;28;20032;-75
2023/09/12 03:30:29;;;;;;;62.80;35.97;;;;;;;21.53;100.00;100776.91;5076524;28;20048;-81
2023/09/12 03:32:54;;;;;;;45.72;30.25;;;;;;;21.49;100.00;100785.94;5043144;28;20244;-73
2023/09/12 03:35:19;;;;;;;45.58;25.83;;;;;;;21.46;100.00;100787.31;5076718;28;20123;-80
2023/09/12 03:37:45;;;;;;;36.13;21.55;;;;;;;21.37;100.00;100783.47;5059398;28;20166;-81
2023/09/12 03:40:11;;;;;;;32.15;20.20;;;;;;;21.19;100.00;100773.84;5059934;28;20391;-77
2023/09/12 03:42:37;;;;;;;31.00;17.92;;;;;;;21.20;100.00;100785.59;5042893;28;20039;-82
2023/09/12 03:45:03;;;;;;;26.77;17.10;;;;;;;21.18;100.00;100790.50;5060186;28;20054;-78
2023/09/12 03:47:28;;;;;;;25.65;16.40;;;;;;;21.29;100.00;100786.69;5080097;28;20017;-79
2023/09/12 03:49:55;;;;;;;22.30;15.40;;;;;;;21.23;100.00;100782.31;5063817;28;20566;-79
2023/09/12 03:52:20;;;;;;;22.85;14.63;;;;;;;21.29;100.00;100786.69;5083398;28;20034;-85
2023/09/12 03:54:46;;;;;;;21.20;14.10;;;;;;;21.29;100.00;100786.69;5063559;28;20479;-70
2023/09/12 03:57:11;;;;;;;20.58;13.50;;;;;;;21.15;100.00;100774.63;5060746;28;20028;-70
2023/09/12 03:59:37;;;;;;;26.02;13.93;;;;;;;21.26;100.00;100777.13;5076967;28;20029;-73
2023/09/12 04:02:03;;;;;;;18.75;13.32;;;;;;;21.24;100.00;100773.00;5039568;28;20024;-68
2023/09/12 04:04:29;;;;;;;17.75;11.80;;;;;;;21.18;100.00;100777.66;5075780;28;20051;-69
2023/09/12 04:06:54;;;;;;;22.17;13.18;;;;;;;21.16;100.00;100781.75;5083678;28;20025;-70
2023/09/12 04:09:20;;;;;;;19.98;12.80;;;;;;;21.04;100.00;100763.66;5083739;28;20043;-69
2023/09/12 04:11:46;;;;;;;17.13;12.57;;;;;;;21.10;100.00;100779.00;5054596;28;20032;-70
2023/09/12 04:14:12;;;;;;;17.70;12.15;;;;;;;21.09;100.00;100782.84;5075848;28;20479;-71
2023/09/12 04:16:37;;;;;;;20.77;12.23;;;;;;;21.07;100.00;100768.59;5079801;28;20037;-71
2023/09/12 04:19:03;;;;;;;19.17;12.60;;;;;;;21.21;100.00;100779.03;5081677;28;20070;-72
2023/09/12 04:21:28;;;;;;;22.15;12.63;;;;;;;21.17;100.00;100777.94;5046248;28;20025;-72
2023/09/12 04:23:54;;;;;;;19.50;12.73;;;;;;;21.08;100.00;100772.16;5063666;28;20028;-75
2023/09/12 04:26:19;;;;;;;20.73;13.20;;;;;;;21.10;100.00;100778.19;5065305;28;20039;-74
2023/09/12 04:28:48;;;;;;;20.63;12.55;;;;;;;21.07;100.00;100770.53;5083052;28;20032;-72
2023/09/12 04:31:13;;;;;;;20.48;12.90;;;;;;;21.04;100.00;100773.78;5083248;28;20024;-76
2023/09/12 04:33:39;;;;;;;19.63;13.10;;;;;;;20.98;100.00;100758.44;5051121;28;20131;-77
2023/09/12 04:36:05;;;;;;;22.77;13.57;;;;;;;21.11;100.00;100763.41;5050003;28;20047;-74
2023/09/12 04:38:32;;;;;;;20.92;13.73;;;;;;;21.10;100.00;100762.59;5049934;28;20040;-74
2023/09/12 04:41:04;;;;;;;27.50;13.75;;;;;;;21.14;100.00;100773.00;5086320;28;20043;-75
2023/09/12 04:43:30;;;;;;;23.52;13.82;;;;;;;21.12;100.00;100786.94;5086469;28;20024;-75
2023/09/12 04:45:56;;;;;;;29.52;14.68;;;;;;;21.20;100.00;100778.22;5086988;28;20017;-71
2023/09/12 04:48:21;;;;;;;29.10;14.45;;;;;;;21.09;100.00;100777.38;5083821;28;20012;-74
2023/09/12 04:50:46;;;;;;;24.92;13.45;;;;;;;21.14;100.00;100773.00;5086164;28;20028;-76
2023/09/12 04:53:12;;;;;;;25.20;13.60;;;;;;;21.26;100.00;100765.38;5046795;28;20032;-71
2023/09/12 04:55:38;;;;;;;23.70;13.88;;;;;;;21.14;100.00;100773.81;5079209;28;20058;-71
2023/09/12 04:58:05;;;;;;;20.50;12.77;;;;;;;21.33;100.00;100771.41;5080171;28;20021;-74
2023/09/12 05:00:31;;;;;;;17.92;13.70;;;;;;;21.19;100.00;100768.38;5061589;28;20033;-72
2023/09/12 05:02:56;;;;;;;26.08;13.70;;;;;;;21.24;100.00;100756.59;5077767;28;20136;-72
2023/09/12 05:05:22;;;;;;;19.83;13.35;;;;;;;21.20;100.00;100761.78;5079475;28;20443;-71
2023/09/12 05:07:47;;;;;;;18.35;13.38;;;;;;;21.41;100.00;100770.88;5045659;28;20035;-70
2023/09/12 05:10:13;;;;;;;20.55;12.57;;;;;;;21.47;100.00;100767.06;5064031;28;20479;-71
2023/09/12 05:12:38;;;;;;;24.70;14.32;;;;;;;21.32;100.00;100765.09;5062966;28;20032;-71
2023/09/12 05:15:04;;;;;;;18.50;12.95;;;;;;;21.40;100.00;100769.25;5079410;28;20032;-71
2023/09/12 05:17:30;;;;;;;22.30;13.65;;;;;;;21.34;100.00;100764.81;5058250;28;20429;-71
2023/09/12 05:19:55;;;;;;;19.40;13.50;;;;;;;21.37;100.00;100774.44;5078820;28;20071;-75
2023/09/12 05:22:20;;;;;;;19.73;13.98;;;;;;;21.44;100.00;100777.72;5080410;28;20055;-71
2023/09/12 05:24:46;;;;;;;19.65;12.90;;;;;;;21.32;100.00;100775.19;5079115;28;20529;-75
2023/09/12 05:27:12;;;;;;;19.83;12.27;;;;;;;21.34;100.00;100770.28;5061863;28;20028;-75
2023/09/12 05:29:37;;;;;;;21.17;13.45;;;;;;;21.50;100.00;100785.69;5029832;28;20059;-76
2023/09/12 05:32:04;;;;;;;20.38;13.07;;;;;;;21.33;100.00;100774.13;5062189;28;20040;-76
2023/09/12 05:34:29;;;;;;;25.25;14.82;;;;;;;21.38;100.00;100776.06;5080152;28;20029;-74
2023/09/12 05:36:56;;;;;;;23.52;14.75;;;;;;;21.29;100.00;100782.06;5062615;28;20043;-72
2023/09/12 05:39:21;;;;;;;22.20;14.20;;;;;;;21.40;100.00;100769.25;5081622;28;20029;-74
2023/09/12 05:41:48;;;;;;;24.25;14.95;;;;;;;21.32;100.00;100762.38;5063326;28;20040;-75
2023/09/12 05:44:17;;;;;;;19.63;13.82;;;;;;;21.51;100.00;100767.31;5063172;28;20047;-71
2023/09/12 05:46:45;;;;;;;22.15;14.00;;;;;;;21.39;100.00;100770.34;5081330;28;20033;-74
2023/09/12 05:49:11;;;;;;;19.42;13.75;;;;;;;21.52;100.00;100775.28;5064095;28;20067;-72
2023/09/12 05:51:36;;;;;;;21.98;13.32;;;;;;;21.42;100.00;100780.72;5064116;28;20028;-75
2023/09/12 05:54:03;;;;;;;21.65;14.50;;;;;;;21.44;100.00;100784.03;5050061;28;20059;-74
2023/09/12 05:56:29;;;;;;;20.75;14.15;;;;;;;21.47;100.00;100772.53;5068528;28;20032;-77
2023/09/12 05:58:54;;;;;;;22.35;14.70;;;;;;;21.39;100.00;100789.50;5068585;28;20028;-74
2023/09/12 06:01:20;;;;;;;18.95;14.70;;;;;;;21.41;100.00;100792.78;5068857;28;20118;-72
2023/09/12 06:03:45;;;;;;;21.27;13.90;;;;;;;21.45;100.00;100796.59;5061676;28;20053;-72
2023/09/12 06:06:11;;;;;;;23.90;13.88;;;;;;;21.56;100.00;100795.53;5044328;28;20036;-74
2023/09/12 06:08:37;;;;;;;20.45;14.23;;;;;;;21.36;100.00;100798.25;5051587;28;20098;-72
2023/09/12 06:11:04;;;;;;;20.40;14.35;;;;;;;21.48;100.00;100803.47;5085510;28;20475;-72
2023/09/12 06:13:30;;;;;;;21.33;14.43;;;;;;;21.39;100.00;100797.72;5082963;28;20051;-71
2023/09/12 06:15:55;;;;;;;20.98;14.88;;;;;;;21.49;100.00;100794.16;5068123;28;20040;-76
2023/09/12 06:18:21;;;;;;;24.08;15.18;;;;;;;21.36;100.00;100776.34;5072934;28;20041;-71
2023/09/12 06:20:46;;;;;;;22.80;15.88;;;;;;;21.67;100.00;100796.38;5085494;28;20514;-75
2023/09/12 06:23:11;;;;;;;23.75;15.00;;;;;;;21.53;100.00;100789.78;5085201;28;20063;-74
2023/09/12 06:25:37;;;;;;;21.58;16.10;;;;;;;21.70;100.00;100784.03;5083644;28;20033;-72
2023/09/12 06:28:03;;;;;;;24.08;14.05;;;;;;;21.60;100.00;100787.59;5084571;28;20036;-73
2023/09/12 06:30:29;;;;;;;23.52;15.25;;;;;;;21.69;100.00;100779.66;5084991;28;20058;-72
2023/09/12 06:32:54;;;;;;;20.40;13.98;;;;;;;21.63;100.00;100786.25;5066326;28;20029;-73
2023/09/12 06:35:20;;;;;;;22.73;14.68;;;;;;;21.76;100.00;100791.16;5049704;28;20035;-72
2023/09/12 06:37:47;;;;;;;20.92;14.70;;;;;;;21.70;100.00;100789.53;5084048;28;20398;-76
2023/09/12 06:40:12;;;;;;;21.60;15.52;;;;;;;21.78;100.00;100780.75;5065967;28;20054;-73
2023/09/12 06:42:38;;;;;;;21.92;15.00;;;;;;;21.84;100.00;100787.06;5083760;28;20028;-72
2023/09/12 06:45:04;;;;;;;20.02;14.43;;;;;;;22.03;100.00;100785.41;5083350;28;20055;-72
2023/09/12 06:47:29;;;;;;;18.92;14.18;;;;;;;22.03;100.00;100745.09;5049116;28;20086;-78
2023/09/12 06:49:55;;;;;;;21.77;13.52;;;;;;;22.41;100.00;100800.41;5065894;28;20052;-70
2023/09/12 06:52:20;;;;;;;18.95;12.88;;;;;;;22.75;100.00;100791.53;5065671;28;20028;-74
2023/09/12 06:54:46;;;;;;;18.05;12.27;;;;;;;22.95;100.00;100796.97;5065375;28;20040;-75
2023/09/12 06:57:11;;;;;;;16.52;11.73;;;;;;;22.94;100.00;100810.94;5083312;28;20024;-79
2023/09/12 06:59:37;;;;;;;18.50;12.40;;;;;;;22.77;100.00;100803.03;5060933;28;20029;-71
2023/09/12 07:02:03;;;;;;;21.08;11.93;;;;;;;22.86;100.00;100808.78;5040601;28;20024;-73
2023/09/12 07:04:29;;;;;;;14.73;10.82;;;;;;;22.77;100.00;100805.78;5081524;28;20060;-72
2023/09/12 07:06:55;;;;;;;18.38;11.02;;;;;;;22.76;100.00;100801.41;5081753;28;20394;-72
2023/09/12 07:09:20;;;;;;;18.38;11.55;;;;;;;22.69;100.00;100804.44;5065006;28;20060;-73
2023/09/12 07:11:46;;;;;;;14.77;11.05;;;;;;;22.55;100.00;100805.31;5064849;28;20055;-74
2023/09/12 07:14:12;;;;;;;17.15;10.52;;;;;;;22.51;100.00;100808.59;5083204;28;20024;-74
2023/09/12 07:16:37;;;;;;;16.33;11.15;;;;;;;22.66;100.00;100815.16;5083726;28;20032;-72
2023/09/12 07:19:03;;;;;;;19.77;11.90;;;;;;;22.48;100.00;100817.41;5065406;28;20036;-71
2023/09/12 07:21:29;;;;;;;13.27;10.35;;;;;;;22.66;100.00;100823.38;5065063;28;20048;-72
2023/09/12 07:23:55;;;;;;;16.38;10.80;;;;;;;22.54;100.00;100817.38;5086618;28;20025;-71
2023/09/12 07:26:20;;;;;;;14.35;10.23;;;;;;;22.66;100.00;100812.41;5065869;28;20024;-71
2023/09/12 07:28:46;;;;;;;15.73;9.98;;;;;;;22.55;100.00;100824.50;5064953;28;20112;-70
2023/09/12 07:31:11;;;;;;;17.95;10.40;;;;;;;22.54;100.00;100828.34;5083817;28;20060;-71
2023/09/12 07:33:37;;;;;;;15.73;9.48;;;;;;;22.74;100.00;100833.78;5066834;28;20127;-73
2023/09/12 07:36:03;;;;;;;16.67;10.40;;;;;;;22.64;100.00;100818.16;5066308;28;20035;-71
2023/09/12 07:38:30;;;;;;;17.52;9.40;;;;;;;22.60;100.00;100827.25;5064477;28;20040;-71
2023/09/12 07:40:57;;;;;;;11.68;9.13;;;;;;;22.79;100.00;100820.03;5083700;28;20052;-71
2023/09/12 07:43:22;;;;;;;13.95;8.40;;;;;;;22.86;100.00;100820.56;5068368;28;20016;-72
2023/09/12 07:45:49;;;;;;;13.65;8.38;;;;;;;22.86;100.00;100819.75;5093899;28;20028;-71
2023/09/12 07:48:15;;;;;;;13.73;9.48;;;;;;;23.09;100.00;100832.03;5071385;28;20021;-71
2023/09/12 07:50:40;;;;;;;13.68;8.55;;;;;;;22.89;100.00;100822.75;5077596;28;20134;-71
2023/09/12 07:53:06;;;;;;;13.80;8.93;;;;;;;23.00;100.00;100830.97;5068380;28;20029;-71
2023/09/12 07:55:37;;;;;;;12.38;8.65;;;;;;;23.09;100.00;100832.84;5083174;28;20491;-71
2023/09/12 07:58:03;;;;;;;16.63;8.52;;;;;;;23.08;100.00;100841.34;5074454;28;20032;-76
2023/09/12 08:00:29;;;;;;;14.13;8.77;;;;;;;23.02;100.00;100846.06;5080907;28;20032;-71
2023/09/12 08:02:54;;;;;;;14.57;8.35;;;;;;;22.98;100.00;100847.72;5083306;28;20084;-74
2023/09/12 08:05:20;;;;;;;15.63;7.90;;;;;;;22.94;100.00;100847.44;5081573;28;20040;-74
2023/09/12 08:07:45;;;;;;;14.45;7.50;;;;;;;22.83;100.00;100854.03;5046733;28;20131;-72
2023/09/12 08:10:10;;;;;;;11.45;7.53;;;;;;;22.83;100.00;100856.78;5082489;28;20028;-73
2023/09/12 08:12:38;;;;;;;12.35;7.15;;;;;;;22.91;100.00;100852.63;5063552;28;20177;-72
2023/09/12 08:15:04;;;;;;;13.48;7.90;;;;;;;22.96;100.00;100853.47;5063332;28;20032;-73
2023/09/12 08:17:29;;;;;;;14.02;7.45;;;;;;;22.95;100.00;100848.28;5046622;28;20032;-74
2023/09/12 08:19:55;;;;;;;15.90;8.27;;;;;;;22.83;100.00;100845.81;5081294;28;20028;-72
2023/09/12 08:22:20;;;;;;;11.52;7.57;;;;;;;23.20;100.00;100855.56;5077287;28;20021;-73
2023/09/12 08:24:46;;;;;;;14.20;7.95;;;;;;;23.13;100.00;100849.56;5045203;28;20029;-75
2023/09/12 08:27:12;;;;;;;17.08;8.02;;;;;;;23.32;100.00;100842.31;5084181;28;20086;-74
2023/09/12 08:29:38;;;;;;;15.38;9.32;;;;;;;;;;5046470;28;20106;-75
2023/09/12 08:32:03;;;;;;;14.93;8.35;;;;;;;;;;5062982;28;20032;-72
2023/09/12 08:34:29;;;;;;;12.93;8.35;;;;;;;23.51;100.00;100838.91;5063649;28;20027;-74
2023/09/12 08:36:54;;;;;;;12.30;7.72;;;;;;;23.63;100.00;100858.59;5080569;28;20502;-78
2023/09/12 08:39:27;;;;;;;15.75;8.38;;;;;;;23.51;100.00;100850.72;5081536;28;20086;-74
2023/09/12 08:41:53;;;;;;;13.38;7.65;;;;;;;23.40;100.00;100857.38;5080977;28;20487;-71
2023/09/12 08:44:20;;;;;;;14.02;8.02;;;;;;;23.37;100.00;100861.50;5081196;28;20101;-73
2023/09/12 08:46:47;;;;;;;12.57;8.30;;;;;;;23.32;100.00;100861.53;5062526;28;20103;-78
2023/09/12 08:49:12;;;;;;;14.07;8.90;;;;;;;23.37;100.00;100853.25;5080790;28;20025;-76
2023/09/12 08:51:41;;;;;;;16.45;9.00;;;;;;;23.44;100.00;100863.94;5080305;28;20033;-72
2023/09/12 08:54:07;;;;;;;15.77;8.65;;;;;;;23.52;100.00;100855.13;5072325;28;20106;-71
2023/09/12 08:56:35;;;;;;;12.65;9.00;;;;;;;23.43;100.00;100837.59;5059233;28;20025;-78
2023/09/12 08:59:01;;;;;;;13.23;8.45;;;;;;;23.64;100.00;100857.50;5060338;28;20028;-74
2023/09/12 09:01:30;;;;;;;13.20;8.98;;;;;;;23.59;100.00;100860.28;5062139;28;20083;-71
2023/09/12 09:03:56;;;;;;;13.10;9.23;;;;;;;23.54;100.00;100857.56;5060816;28;20402;-74
2023/09/12 09:06:23;;;;;;;13.20;9.32;;;;;;;23.35;100.00;100844.50;5061482;28;20048;-75
2023/09/12 09:08:50;;;;;;;16.42;9.20;;;;;;;23.33;100.00;100859.63;5079737;28;20044;-71
2023/09/12 09:11:16;;;;;;;16.77;10.68;;;;;;;23.20;100.00;100861.06;5079900;28;20032;-79
2023/09/12 09:13:41;;;;;;;17.02;10.20;;;;;;;23.20;100.00;100863.78;5064799;28;20040;-77
2023/09/12 09:16:18;;;;;;;15.98;9.77;;;;;;;23.17;100.00;100870.66;5078902;28;20071;-72
2023/09/12 09:18:53;;;;;;;20.90;10.80;;;;;;;23.13;100.00;100857.78;5078065;28;20084;-72
2023/09/12 09:21:24;;;;;;;14.93;9.75;;;;;;;23.12;100.00;100865.22;5058318;28;20083;-72
2023/09/12 09:23:51;;;;;;;17.02;10.05;;;;;;;23.07;100.00;100867.16;5073948;28;20074;-71
2023/09/12 09:26:17;;;;;;;16.75;9.40;;;;;;;23.05;100.00;100872.13;5061187;28;20699;-74
2023/09/12 09:28:42;;;;;;;12.88;8.20;;;;;;;22.93;100.00;100844.97;5063527;28;20095;-76
2023/09/12 09:31:14;;;;;;;14.85;6.50;;;;;;;23.00;100.00;100858.41;5067131;28;20064;-75
2023/09/12 09:33:40;;;;;;;15.15;5.43;;;;;;;22.92;100.00;100854.28;5065918;28;20102;-76
2023/09/12 09:36:07;;;;;;;13.40;5.20;;;;;;;23.09;100.00;100852.06;5084214;28;20044;-77
2023/09/12 09:38:36;;;;;;;10.43;5.00;;;;;;;23.23;100.00;100852.25;5067024;28;20028;-74
2023/09/12 09:41:06;;;;;;;12.27;4.63;;;;;;;23.28;100.00;100855.00;5078492;28;20107;-71
2023/09/12 09:43:32;;;;;;;11.73;4.88;;;;;;;23.32;100.00;100852.50;5078670;28;20035;-73
2023/09/12 09:45:58;;;;;;;11.15;4.50;;;;;;;23.32;100.00;100858.81;5060919;28;20390;-71
2023/09/12 09:48:26;;;;;;;12.07;5.10;;;;;;;23.42;100.00;100857.91;5064223;28;20600;-71
2023/09/12 09:50:53;;;;;;;11.35;4.68;;;;;;;23.41;100.00;100857.09;5082286;28;20082;-72
2023/09/12 09:53:26;;;;;;;11.02;4.22;;;;;;;23.39;100.00;100848.31;5085119;28;20039;-73
2023/09/12 09:55:51;;;;;;;10.70;4.53;;;;;;;23.57;100.00;100854.25;5082716;28;20055;-72
2023/09/12 09:58:17;;;;;;;10.90;3.97;;;;;;;23.65;100.00;100853.66;5081410;28;20033;-72
2023/09/12 10:00:43;;;;;;;13.05;3.80;;;;;;;23.57;100.00;100857.81;5047841;28;20062;-72
2023/09/12 10:03:10;;;;;;;10.27;3.22;;;;;;;23.76;99.23;100854.44;5047735;28;20048;-78
2023/09/12 10:05:37;;;;;;;10.48;3.72;;;;;;;23.88;98.53;100852.97;5081919;28;20024;-77
2023/09/12 10:08:06;;;;;;;8.90;3.15;;;;;;;23.94;98.57;100852.91;5064624;28;20511;-72
2023/09/12 10:10:34;;;;;;;9.63;3.30;;;;;;;24.08;97.11;100851.16;5065042;28;20094;-71
2023/09/12 10:13:03;;;;;;;9.43;2.85;;;;;;;23.98;97.37;100859.50;5081669;28;20044;-72
2023/09/12 10:15:33;;;;;;;10.25;3.13;;;;;;;23.99;95.80;100856.44;5081336;28;20044;-71
2023/09/12 10:18:06;;;;;;;8.32;3.28;;;;;;;23.56;96.07;100866.34;5080068;28;20096;-77
2023/09/12 10:20:45;;;;;;;8.43;3.10;;;;;;;23.48;96.35;100869.69;5079841;28;20082;-73
2023/09/12 10:23:21;;;;;;;9.50;3.00;;;;;;;23.68;95.58;100872.34;5080104;28;20024;-80
2023/09/12 10:25:50;;;;;;;9.98;3.42;;;;;;;23.87;95.36;100870.56;5058840;28;20021;-70
2023/09/12 10:28:17;;;;;;;7.15;2.83;;;;;;;23.70;94.24;100872.88;5061145;28;20027;-71
2023/09/12 10:30:42;;;;;;;9.50;3.00;;;;;;;23.54;94.41;100863.06;5067499;28;20024;-76
2023/09/12 10:33:09;;;;;;;7.05;2.58;;;;;;;23.62;93.34;100873.44;5085203;28;20025;-72
2023/09/12 10:35:35;;;;;;;10.10;2.58;;;;;;;23.65;92.35;100872.88;5062139;28;20028;-71
2023/09/12 10:38:05;;;;;;;5.85;1.80;;;;;;;23.50;91.63;100851.81;5080992;28;20043;-71
2023/09/12 10:40:33;;;;;;;4.63;1.80;;;;;;;23.44;91.55;100866.69;5061498;28;20032;-72
2023/09/12 10:43:00;;;;;;;5.72;1.90;;;;;;;23.70;91.00;100877.53;5061252;28;20028;-73
2023/09/12 10:45:27;;;;;;;5.22;1.30;;;;;;;23.56;90.46;100855.34;5061108;28;20111;-79
2023/09/12 10:47:53;;;;;;;6.85;1.73;;;;;;;23.54;90.29;100871.28;5058851;28;20024;-70
2023/09/12 10:50:20;;;;;;;5.55;1.35;;;;;;;23.49;90.49;100863.09;5059544;28;20025;-70
2023/09/12 10:52:45;;;;;;;5.00;1.15;;;;;;;23.61;89.39;100866.31;5080196;28;20048;-71
2023/09/12 10:55:20;;;;;;;4.65;1.00;;;;;;;23.56;88.01;100852.63;5079884;28;20037;-71
2023/09/12 10:58:04;;;;;;;;;;;;;;;23.56;89.22;100872.66;5079384;28;20035;-71
2023/09/12 11:00:32;;;;;;;6.17;1.20;;;;;;;23.66;87.63;100856.09;5079309;28;19916;-73
2023/09/12 11:03:02;;;;;;;3.80;0.80;;;;;;;23.41;87.00;100865.34;5045017;28;20858;-73
2023/09/12 11:05:27;;;;;;;3.83;0.73;;;;;;;23.35;86.38;100871.97;5079643;28;20033;-74